createdAt,value
2018-10-01T00:00:23.086Z,1011.31
2018-10-01T00:01:23.072Z,1011.31
2018-10-01T00:02:23.092Z,1011.28
2018-10-01T00:03:23.092Z,1011.28
2018-10-01T00:04:23.063Z,1011.27
2018-10-01T00:05:23.048Z,1011.25
2018-10-01T00:06:23.043Z,1011.23
2018-10-01T00:07:23.058Z,1011.23
2018-10-01T00:08:23.034Z,1011.25
2018-10-01T00:09:23.024Z,1011.26
2018-10-01T00:10:23.019Z,1011.23
2018-10-01T00:11:23.027Z,1011.24
2018-10-01T00:12:23.028Z,1011.23
2018-10-01T00:13:22.995Z,1011.26
2018-10-01T00:14:22.987Z,1011.25
2018-10-01T00:15:22.972Z,1011.25
2018-10-01T00:16:22.985Z,1011.24
2018-10-01T00:17:22.976Z,1011.20
2018-10-01T00:18:22.953Z,1011.16
2018-10-01T00:19:22.960Z,1011.23
2018-10-01T00:20:22.957Z,1011.19
2018-10-01T00:21:22.939Z,1011.19
2018-10-01T00:22:22.935Z,1011.18
2018-10-01T00:23:22.913Z,1011.17
2018-10-01T00:24:22.922Z,1011.18
2018-10-01T00:25:22.915Z,1011.24
2018-10-01T00:26:22.916Z,1011.18
2018-10-01T00:27:22.905Z,1011.19
2018-10-01T00:28:22.891Z,1011.19
2018-10-01T00:29:22.885Z,1011.17
2018-10-01T00:30:22.889Z,1011.20
2018-10-01T00:31:22.882Z,1011.18
2018-10-01T00:32:22.865Z,1011.19
2018-10-01T00:33:22.858Z,1011.24
2018-10-01T00:34:22.859Z,1011.22
2018-10-01T00:35:22.851Z,1011.22
2018-10-01T00:36:22.836Z,1011.22
2018-10-01T00:37:22.825Z,1011.27
2018-10-01T00:38:22.869Z,1011.25
2018-10-01T00:39:22.825Z,1011.23
2018-10-01T00:40:22.821Z,1011.21
2018-10-01T00:41:22.798Z,1011.19
2018-10-01T00:42:22.793Z,1011.20
2018-10-01T00:43:22.789Z,1011.18
2018-10-01T00:44:22.783Z,1011.17
2018-10-01T00:45:22.775Z,1011.21
2018-10-01T00:46:22.767Z,1011.18
2018-10-01T00:47:22.762Z,1011.18
2018-10-01T00:48:22.747Z,1011.22
2018-10-01T00:49:22.754Z,1011.20
2018-10-01T00:50:22.743Z,1011.18
2018-10-01T00:51:22.739Z,1011.16
2018-10-01T00:52:22.735Z,1011.21
2018-10-01T00:53:22.717Z,1011.18
2018-10-01T00:54:22.716Z,1011.16
2018-10-01T00:55:22.706Z,1011.15
2018-10-01T00:56:22.689Z,1011.10
2018-10-01T00:57:22.707Z,1011.11
2018-10-01T00:58:22.680Z,1011.07
2018-10-01T00:59:22.675Z,1011.08
2018-10-01T01:00:22.676Z,1011.09
2018-10-01T01:01:22.658Z,1011.08
2018-10-01T01:02:22.678Z,1011.01
2018-10-01T01:03:22.648Z,1011.00
2018-10-01T01:04:22.642Z,1010.98
2018-10-01T01:05:22.639Z,1010.95
2018-10-01T01:06:22.638Z,1010.92
2018-10-01T01:07:22.618Z,1010.91
2018-10-01T01:08:22.621Z,1010.91
2018-10-01T01:09:22.604Z,1010.83
2018-10-01T01:10:22.619Z,1010.89
2018-10-01T01:11:22.606Z,1010.92
2018-10-01T01:12:22.583Z,1010.95
2018-10-01T01:13:22.579Z,1010.98
2018-10-01T01:14:22.571Z,1011.01
2018-10-01T01:15:22.562Z,1011.06
2018-10-01T01:16:22.567Z,1011.07
2018-10-01T01:17:22.564Z,1011.08
2018-10-01T01:18:22.540Z,1011.10
2018-10-01T01:19:22.538Z,1011.17
2018-10-01T01:20:22.533Z,1011.14
2018-10-01T01:21:22.544Z,1011.13
2018-10-01T01:22:22.521Z,1011.18
2018-10-01T01:23:22.512Z,1011.20
2018-10-01T01:24:22.513Z,1011.16
2018-10-01T01:25:22.492Z,1011.13
2018-10-01T01:26:22.492Z,1011.14
2018-10-01T01:27:22.489Z,1011.17
2018-10-01T01:28:22.479Z,1011.14
2018-10-01T01:29:22.471Z,1011.07
2018-10-01T01:30:22.470Z,1011.08
2018-10-01T01:31:22.454Z,1011.09
2018-10-01T01:32:22.444Z,1011.07
2018-10-01T01:33:22.440Z,1011.06
2018-10-01T01:34:22.435Z,1011.09
2018-10-01T01:35:22.431Z,1011.09
2018-10-01T01:36:22.436Z,1011.08
2018-10-01T01:37:22.421Z,1011.14
2018-10-01T01:38:22.417Z,1011.13
2018-10-01T01:39:22.403Z,1011.14
2018-10-01T01:40:22.397Z,1011.15
2018-10-01T01:41:22.392Z,1011.14
2018-10-01T01:42:22.385Z,1011.18
2018-10-01T01:43:22.378Z,1011.21
2018-10-01T01:44:22.377Z,1011.22
2018-10-01T01:45:22.359Z,1011.23
2018-10-01T01:46:22.358Z,1011.21
2018-10-01T01:47:22.348Z,1011.23
2018-10-01T01:48:22.334Z,1011.22
2018-10-01T01:49:22.331Z,1011.20
2018-10-01T01:50:22.329Z,1011.20
2018-10-01T01:51:22.322Z,1011.23
2018-10-01T01:52:22.313Z,1011.17
2018-10-01T01:53:22.308Z,1011.18
2018-10-01T01:54:22.296Z,1011.16
2018-10-01T01:55:22.294Z,1011.17
2018-10-01T01:56:22.291Z,1011.10
2018-10-01T01:57:22.286Z,1011.11
2018-10-01T01:58:22.267Z,1011.11
2018-10-01T01:59:22.257Z,1011.13
2018-10-01T02:00:22.254Z,1011.12
2018-10-01T02:01:22.257Z,1011.09
2018-10-01T02:02:22.244Z,1011.13
2018-10-01T02:03:22.229Z,1011.10
2018-10-01T02:04:22.234Z,1011.15
2018-10-01T02:05:22.224Z,1011.13
2018-10-01T02:06:22.211Z,1011.14
2018-10-01T02:07:22.208Z,1011.18
2018-10-01T02:08:22.200Z,1011.19
2018-10-01T02:09:22.196Z,1011.19
2018-10-01T02:10:22.194Z,1011.17
2018-10-01T02:11:22.176Z,1011.19
2018-10-01T02:12:22.177Z,1011.24
2018-10-01T02:13:22.158Z,1011.21
2018-10-01T02:14:22.162Z,1011.19
2018-10-01T02:15:22.156Z,1011.21
2018-10-01T02:16:22.144Z,1011.21
2018-10-01T02:17:22.147Z,1011.18
2018-10-01T02:18:22.133Z,1011.21
2018-10-01T02:19:22.127Z,1011.21
2018-10-01T02:20:22.116Z,1011.22
2018-10-01T02:21:22.124Z,1011.23
2018-10-01T02:22:22.098Z,1011.25
2018-10-01T02:23:22.092Z,1011.24
2018-10-01T02:24:22.086Z,1011.24
2018-10-01T02:25:22.081Z,1011.26
2018-10-01T02:26:22.076Z,1011.27
2018-10-01T02:27:22.069Z,1011.24
2018-10-01T02:28:22.062Z,1011.25
2018-10-01T02:29:22.052Z,1011.22
2018-10-01T02:30:22.047Z,1011.24
2018-10-01T02:31:22.038Z,1011.22
2018-10-01T02:32:22.041Z,1011.24
2018-10-01T02:33:22.031Z,1011.28
2018-10-01T02:34:22.015Z,1011.25
2018-10-01T02:35:22.018Z,1011.26
2018-10-01T02:36:22.002Z,1011.28
2018-10-01T02:37:22.020Z,1011.32
2018-10-01T02:38:21.992Z,1011.29
2018-10-01T02:39:21.997Z,1011.33
2018-10-01T02:40:21.978Z,1011.30
2018-10-01T02:41:21.975Z,1011.32
2018-10-01T02:42:21.970Z,1011.30
2018-10-01T02:43:21.955Z,1011.31
2018-10-01T02:44:21.951Z,1011.34
2018-10-01T02:45:21.944Z,1011.30
2018-10-01T02:46:21.938Z,1011.35
2018-10-01T02:47:21.930Z,1011.35
2018-10-01T02:48:21.937Z,1011.36
2018-10-01T02:49:21.917Z,1011.39
2018-10-01T02:50:21.905Z,1011.41
2018-10-01T02:51:21.900Z,1011.41
2018-10-01T02:52:21.891Z,1011.44
2018-10-01T02:53:21.894Z,1011.41
2018-10-01T02:54:21.884Z,1011.43
2018-10-01T02:55:21.877Z,1011.43
2018-10-01T02:56:21.869Z,1011.45
2018-10-01T02:57:21.861Z,1011.40
2018-10-01T02:58:21.850Z,1011.41
2018-10-01T02:59:21.848Z,1011.39
2018-10-01T03:00:21.842Z,1011.36
2018-10-01T03:01:21.836Z,1011.41
2018-10-01T03:02:21.827Z,1011.36
2018-10-01T03:03:21.814Z,1011.36
2018-10-01T03:04:21.816Z,1011.34
2018-10-01T03:05:21.810Z,1011.32
2018-10-01T03:06:21.802Z,1011.29
2018-10-01T03:07:21.787Z,1011.27
2018-10-01T03:08:21.791Z,1011.30
2018-10-01T03:09:21.789Z,1011.29
2018-10-01T03:10:21.778Z,1011.28
2018-10-01T03:11:21.767Z,1011.27
2018-10-01T03:12:21.841Z,1011.28
2018-10-01T03:13:21.754Z,1011.26
2018-10-01T03:14:21.737Z,1011.27
2018-10-01T03:15:21.745Z,1011.27
2018-10-01T03:16:21.736Z,1011.24
2018-10-01T03:17:21.732Z,1011.28
2018-10-01T03:18:21.713Z,1011.30
2018-10-01T03:19:21.705Z,1011.30
2018-10-01T03:20:21.699Z,1011.31
2018-10-01T03:21:21.704Z,1011.33
2018-10-01T03:22:21.684Z,1011.29
2018-10-01T03:23:21.684Z,1011.32
2018-10-01T03:24:21.672Z,1011.33
2018-10-01T03:25:21.682Z,1011.34
2018-10-01T03:26:21.669Z,1011.36
2018-10-01T03:27:21.651Z,1011.31
2018-10-01T03:28:21.647Z,1011.32
2018-10-01T03:29:21.636Z,1011.32
2018-10-01T03:30:21.627Z,1011.32
2018-10-01T03:31:21.627Z,1011.30
2018-10-01T03:32:21.627Z,1011.32
2018-10-01T03:33:21.617Z,1011.32
2018-10-01T03:34:21.609Z,1011.31
2018-10-01T03:35:21.591Z,1011.35
2018-10-01T03:36:21.592Z,1011.30
2018-10-01T03:37:21.579Z,1011.35
2018-10-01T03:38:21.574Z,1011.33
2018-10-01T03:39:21.574Z,1011.37
2018-10-01T03:40:21.573Z,1011.36
2018-10-01T03:41:21.558Z,1011.35
2018-10-01T03:42:21.538Z,1011.37
2018-10-01T03:43:21.541Z,1011.32
2018-10-01T03:44:21.538Z,1011.31
2018-10-01T03:45:21.528Z,1011.35
2018-10-01T03:46:21.534Z,1011.36
2018-10-01T03:47:21.533Z,1011.38
2018-10-01T03:48:21.510Z,1011.32
2018-10-01T03:49:21.513Z,1011.34
2018-10-01T03:50:21.491Z,1011.35
2018-10-01T03:51:21.488Z,1011.32
2018-10-01T03:52:21.481Z,1011.32
2018-10-01T03:53:21.471Z,1011.29
2018-10-01T03:54:21.478Z,1011.27
2018-10-01T03:55:21.459Z,1011.29
2018-10-01T03:56:21.456Z,1011.28
2018-10-01T03:57:21.454Z,1011.30
2018-10-01T03:58:21.438Z,1011.31
2018-10-01T03:59:21.437Z,1011.38
2018-10-01T04:00:21.424Z,1011.36
2018-10-01T04:01:21.417Z,1011.32
2018-10-01T04:02:21.419Z,1011.29
2018-10-01T04:03:21.400Z,1011.32
2018-10-01T04:04:21.391Z,1011.29
2018-10-01T04:05:21.392Z,1011.32
2018-10-01T04:06:21.387Z,1011.31
2018-10-01T04:07:21.370Z,1011.34
2018-10-01T04:08:21.359Z,1011.32
2018-10-01T04:09:21.366Z,1011.34
2018-10-01T04:10:21.348Z,1011.34
2018-10-01T04:11:21.346Z,1011.31
2018-10-01T04:12:21.343Z,1011.33
2018-10-01T04:13:21.340Z,1011.33
2018-10-01T04:14:21.328Z,1011.37
2018-10-01T04:15:21.326Z,1011.36
2018-10-01T04:16:21.318Z,1011.40
2018-10-01T04:17:21.309Z,1011.38
2018-10-01T04:18:21.302Z,1011.42
2018-10-01T04:19:21.287Z,1011.43
2018-10-01T04:20:21.283Z,1011.43
2018-10-01T04:21:21.282Z,1011.45
2018-10-01T04:22:21.276Z,1011.47
2018-10-01T04:23:21.281Z,1011.48
2018-10-01T04:24:21.254Z,1011.49
2018-10-01T04:25:21.253Z,1011.50
2018-10-01T04:26:21.239Z,1011.47
2018-10-01T04:27:21.241Z,1011.44
2018-10-01T04:28:21.284Z,1011.45
2018-10-01T04:29:21.225Z,1011.44
2018-10-01T04:30:21.210Z,1011.42
2018-10-01T04:31:21.217Z,1011.40
2018-10-01T04:32:21.198Z,1011.46
2018-10-01T04:33:21.194Z,1011.44
2018-10-01T04:34:21.187Z,1011.44
2018-10-01T04:35:21.189Z,1011.45
2018-10-01T04:36:21.180Z,1011.44
2018-10-01T04:37:21.167Z,1011.48
2018-10-01T04:38:21.162Z,1011.44
2018-10-01T04:39:21.164Z,1011.49
2018-10-01T04:40:21.163Z,1011.51
2018-10-01T04:41:21.147Z,1011.53
2018-10-01T04:42:21.137Z,1011.55
2018-10-01T04:43:21.127Z,1011.59
2018-10-01T04:44:21.123Z,1011.55
2018-10-01T04:45:21.124Z,1011.60
2018-10-01T04:46:21.097Z,1011.58
2018-10-01T04:47:21.103Z,1011.58
2018-10-01T04:48:21.089Z,1011.63
2018-10-01T04:49:21.098Z,1011.61
2018-10-01T04:50:21.076Z,1011.62
2018-10-01T04:51:21.068Z,1011.65
2018-10-01T04:52:21.062Z,1011.64
2018-10-01T04:53:21.060Z,1011.66
2018-10-01T04:54:21.061Z,1011.72
2018-10-01T04:55:21.056Z,1011.70
2018-10-01T04:56:21.047Z,1011.73
2018-10-01T04:57:21.033Z,1011.74
2018-10-01T04:58:21.091Z,1011.74
2018-10-01T04:59:21.017Z,1011.77
2018-10-01T05:00:21.013Z,1011.80
2018-10-01T05:01:21.023Z,1011.78
2018-10-01T05:02:21.013Z,1011.84
2018-10-01T05:03:20.992Z,1011.78
2018-10-01T05:04:20.976Z,1011.82
2018-10-01T05:05:20.981Z,1011.86
2018-10-01T05:06:20.967Z,1011.87
2018-10-01T05:07:20.965Z,1011.86
2018-10-01T05:08:20.957Z,1011.93
2018-10-01T05:09:20.947Z,1011.97
2018-10-01T05:10:20.938Z,1011.97
2018-10-01T05:11:20.928Z,1011.98
2018-10-01T05:12:20.924Z,1011.95
2018-10-01T05:13:20.923Z,1011.98
2018-10-01T05:14:20.920Z,1011.98
2018-10-01T05:15:20.915Z,1011.98
2018-10-01T05:16:20.892Z,1011.98
2018-10-01T05:17:20.900Z,1011.99
2018-10-01T05:18:20.899Z,1012.03
2018-10-01T05:19:20.878Z,1012.02
2018-10-01T05:20:20.883Z,1012.04
2018-10-01T05:21:20.876Z,1012.04
2018-10-01T05:22:20.855Z,1012.01
2018-10-01T05:23:20.867Z,1012.01
2018-10-01T05:24:20.846Z,1012.03
2018-10-01T05:25:20.843Z,1012.04
2018-10-01T05:26:20.838Z,1012.02
2018-10-01T05:27:20.844Z,1012.04
2018-10-01T05:28:20.807Z,1012.05
2018-10-01T05:29:20.809Z,1012.00
2018-10-01T05:30:20.799Z,1012.05
2018-10-01T05:31:20.805Z,1012.08
2018-10-01T05:32:20.791Z,1012.09
2018-10-01T05:33:20.781Z,1012.10
2018-10-01T05:34:20.774Z,1012.11
2018-10-01T05:35:20.793Z,1012.11
2018-10-01T05:36:20.773Z,1012.11
2018-10-01T05:37:20.748Z,1012.16
2018-10-01T05:38:20.741Z,1012.17
2018-10-01T05:39:20.735Z,1012.14
2018-10-01T05:40:20.729Z,1012.14
2018-10-01T05:41:20.731Z,1012.17
2018-10-01T05:42:20.726Z,1012.19
2018-10-01T05:43:20.703Z,1012.22
2018-10-01T05:44:20.711Z,1012.21
2018-10-01T05:45:20.701Z,1012.24
2018-10-01T05:46:20.690Z,1012.22
2018-10-01T05:47:20.705Z,1012.25
2018-10-01T05:48:20.674Z,1012.23
2018-10-01T05:49:20.666Z,1012.27
2018-10-01T05:50:20.659Z,1012.28
2018-10-01T05:51:20.649Z,1012.28
2018-10-01T05:52:20.681Z,1012.30
2018-10-01T05:53:20.648Z,1012.33
2018-10-01T05:54:20.634Z,1012.33
2018-10-01T05:55:20.625Z,1012.34
2018-10-01T05:56:20.616Z,1012.37
2018-10-01T05:57:20.608Z,1012.38
2018-10-01T05:58:20.602Z,1012.33
2018-10-01T05:59:20.616Z,1012.35
2018-10-01T06:00:20.589Z,1012.39
2018-10-01T06:01:20.581Z,1012.40
2018-10-01T06:02:20.584Z,1012.42
2018-10-01T06:03:20.570Z,1012.45
2018-10-01T06:04:20.566Z,1012.41
2018-10-01T06:05:20.560Z,1012.42
2018-10-01T06:06:20.557Z,1012.39
2018-10-01T06:07:20.539Z,1012.41
2018-10-01T06:08:20.538Z,1012.38
2018-10-01T06:09:20.535Z,1012.38
2018-10-01T06:10:20.518Z,1012.34
2018-10-01T06:11:20.519Z,1012.41
2018-10-01T06:12:20.509Z,1012.41
2018-10-01T06:13:20.505Z,1012.42
2018-10-01T06:14:20.491Z,1012.42
2018-10-01T06:15:20.494Z,1012.40
2018-10-01T06:16:20.486Z,1012.40
2018-10-01T06:17:20.465Z,1012.39
2018-10-01T06:18:20.468Z,1012.40
2018-10-01T06:19:20.465Z,1012.43
2018-10-01T06:20:20.450Z,1012.43
2018-10-01T06:21:20.444Z,1012.46
2018-10-01T06:22:20.440Z,1012.46
2018-10-01T06:23:20.433Z,1012.51
2018-10-01T06:24:20.420Z,1012.56
2018-10-01T06:25:20.477Z,1012.60
2018-10-01T06:26:20.409Z,1012.60
2018-10-01T06:27:20.402Z,1012.61
2018-10-01T06:28:20.399Z,1012.59
2018-10-01T06:29:20.385Z,1012.50
2018-10-01T06:30:20.378Z,1012.53
2018-10-01T06:31:20.373Z,1012.56
2018-10-01T06:32:20.375Z,1012.58
2018-10-01T06:33:20.346Z,1012.57
2018-10-01T06:34:20.363Z,1012.57
2018-10-01T06:35:20.353Z,1012.58
2018-10-01T06:36:20.359Z,1012.54
2018-10-01T06:37:20.323Z,1012.58
2018-10-01T06:38:20.323Z,1012.55
2018-10-01T06:39:20.335Z,1012.55
2018-10-01T06:40:20.308Z,1012.53
2018-10-01T06:41:20.320Z,1012.53
2018-10-01T06:42:20.293Z,1012.56
2018-10-01T06:43:20.284Z,1012.62
2018-10-01T06:44:20.275Z,1012.65
2018-10-01T06:45:20.295Z,1012.70
2018-10-01T06:46:20.265Z,1012.72
2018-10-01T06:47:20.272Z,1012.74
2018-10-01T06:48:20.251Z,1012.72
2018-10-01T06:49:20.255Z,1012.73
2018-10-01T06:50:20.243Z,1012.77
2018-10-01T06:51:20.268Z,1012.82
2018-10-01T06:52:20.229Z,1012.81
2018-10-01T06:53:20.220Z,1012.86
2018-10-01T06:54:20.201Z,1012.88
2018-10-01T06:55:20.208Z,1012.93
2018-10-01T06:56:20.200Z,1012.85
2018-10-01T06:57:20.188Z,1012.87
2018-10-01T06:58:20.181Z,1012.88
2018-10-01T06:59:20.173Z,1012.93
2018-10-01T07:00:20.174Z,1012.94
2018-10-01T07:01:20.187Z,1012.96
2018-10-01T07:02:20.155Z,1012.96
2018-10-01T07:03:20.152Z,1013.00
2018-10-01T07:04:20.145Z,1013.02
2018-10-01T07:05:20.142Z,1013.02
2018-10-01T07:06:20.126Z,1013.03
2018-10-01T07:07:20.124Z,1013.04
2018-10-01T07:08:20.120Z,1013.05
2018-10-01T07:09:20.121Z,1013.10
2018-10-01T07:10:20.101Z,1013.08
2018-10-01T07:11:20.128Z,1013.08
2018-10-01T07:12:20.084Z,1013.10
2018-10-01T07:13:20.080Z,1013.14
2018-10-01T07:14:20.074Z,1013.13
2018-10-01T07:15:20.061Z,1013.17
2018-10-01T07:16:20.094Z,1013.15
2018-10-01T07:17:20.155Z,1013.15
2018-10-01T07:18:20.057Z,1013.20
2018-10-01T07:19:20.029Z,1013.19
2018-10-01T07:20:20.038Z,1013.19
2018-10-01T07:21:20.045Z,1013.18
2018-10-01T07:22:20.029Z,1013.21
2018-10-01T07:23:20.148Z,1013.24
2018-10-01T07:24:20.023Z,1013.24
2018-10-01T07:25:20.000Z,1013.27
2018-10-01T07:26:19.990Z,1013.28
2018-10-01T07:27:19.981Z,1013.26
2018-10-01T07:28:19.973Z,1013.27
2018-10-01T07:29:19.976Z,1013.30
2018-10-01T07:30:19.959Z,1013.28
2018-10-01T07:31:19.961Z,1013.30
2018-10-01T07:32:19.950Z,1013.29
2018-10-01T07:33:19.944Z,1013.34
2018-10-01T07:34:19.947Z,1013.36
2018-10-01T07:35:19.925Z,1013.39
2018-10-01T07:36:19.913Z,1013.43
2018-10-01T07:37:19.911Z,1013.41
2018-10-01T07:38:19.914Z,1013.45
2018-10-01T07:39:19.896Z,1013.50
2018-10-01T07:40:19.895Z,1013.49
2018-10-01T07:41:19.889Z,1013.50
2018-10-01T07:42:19.879Z,1013.50
2018-10-01T07:43:19.870Z,1013.54
2018-10-01T07:44:19.859Z,1013.53
2018-10-01T07:45:19.979Z,1013.54
2018-10-01T07:46:19.924Z,1013.55
2018-10-01T07:47:19.866Z,1013.55
2018-10-01T07:48:19.837Z,1013.53
2018-10-01T07:49:19.837Z,1013.55
2018-10-01T07:50:19.826Z,1013.61
2018-10-01T07:51:19.822Z,1013.60
2018-10-01T07:52:19.838Z,1013.61
2018-10-01T07:53:19.840Z,1013.60
2018-10-01T07:54:19.808Z,1013.61
2018-10-01T07:55:19.800Z,1013.59
2018-10-01T07:56:19.780Z,1013.61
2018-10-01T07:57:19.816Z,1013.63
2018-10-01T07:58:19.777Z,1013.61
2018-10-01T07:59:19.787Z,1013.66
2018-10-01T08:00:19.817Z,1013.63
2018-10-01T08:01:19.755Z,1013.66
2018-10-01T08:02:19.785Z,1013.71
2018-10-01T08:03:19.741Z,1013.69
2018-10-01T08:04:19.745Z,1013.70
2018-10-01T08:05:19.730Z,1013.77
2018-10-01T08:06:19.729Z,1013.75
2018-10-01T08:07:19.712Z,1013.77
2018-10-01T08:08:19.751Z,1013.74
2018-10-01T08:09:19.780Z,1013.77
2018-10-01T08:10:19.696Z,1013.76
2018-10-01T08:11:19.686Z,1013.79
2018-10-01T08:12:19.676Z,1013.83
2018-10-01T08:13:19.677Z,1013.92
2018-10-01T08:14:19.689Z,1013.93
2018-10-01T08:15:19.663Z,1013.90
2018-10-01T08:16:19.662Z,1013.85
2018-10-01T08:17:19.650Z,1013.87
2018-10-01T08:18:19.641Z,1013.92
2018-10-01T08:19:19.656Z,1013.90
2018-10-01T08:20:19.641Z,1013.91
2018-10-01T08:21:19.624Z,1013.91
2018-10-01T08:22:19.633Z,1013.90
2018-10-01T08:23:19.622Z,1013.90
2018-10-01T08:24:19.609Z,1013.94
2018-10-01T08:25:19.600Z,1013.91
2018-10-01T08:26:19.656Z,1013.92
2018-10-01T08:27:19.587Z,1013.91
2018-10-01T08:28:19.583Z,1013.98
2018-10-01T08:29:19.633Z,1014.02
2018-10-01T08:30:19.581Z,1014.03
2018-10-01T08:31:19.558Z,1014.05
2018-10-01T08:32:19.603Z,1014.04
2018-10-01T08:33:19.571Z,1014.07
2018-10-01T08:34:19.543Z,1014.04
2018-10-01T08:35:19.567Z,1014.07
2018-10-01T08:36:19.522Z,1014.07
2018-10-01T08:37:19.528Z,1014.07
2018-10-01T08:38:19.659Z,1014.09
2018-10-01T08:39:19.509Z,1014.06
2018-10-01T08:40:19.502Z,1014.05
2018-10-01T08:41:19.512Z,1014.02
2018-10-01T08:42:19.495Z,1014.07
2018-10-01T08:43:19.503Z,1014.03
2018-10-01T08:44:19.496Z,1014.07
2018-10-01T08:45:19.474Z,1014.11
2018-10-01T08:46:19.467Z,1014.08
2018-10-01T08:47:19.564Z,1014.16
2018-10-01T08:48:19.453Z,1014.19
2018-10-01T08:49:19.455Z,1014.20
2018-10-01T08:50:19.444Z,1014.22
2018-10-01T08:51:19.436Z,1014.22
2018-10-01T08:52:19.432Z,1014.21
2018-10-01T08:53:19.490Z,1014.27
2018-10-01T08:54:19.424Z,1014.25
2018-10-01T08:55:19.428Z,1014.25
2018-10-01T08:56:19.479Z,1014.24
2018-10-01T08:57:19.398Z,1014.26
2018-10-01T08:58:19.410Z,1014.30
2018-10-01T08:59:19.448Z,1014.30
2018-10-01T09:00:19.389Z,1014.27
2018-10-01T09:01:19.380Z,1014.28
2018-10-01T09:02:19.376Z,1014.26
2018-10-01T09:03:19.357Z,1014.25
2018-10-01T09:04:19.361Z,1014.23
2018-10-01T09:05:19.354Z,1014.24
2018-10-01T09:06:19.383Z,1014.31
2018-10-01T09:07:19.353Z,1014.29
2018-10-01T09:08:19.336Z,1014.33
2018-10-01T09:09:19.343Z,1014.39
2018-10-01T09:10:19.321Z,1014.44
2018-10-01T09:11:19.367Z,1014.43
2018-10-01T09:12:19.297Z,1014.48
2018-10-01T09:13:19.305Z,1014.51
2018-10-01T09:14:19.323Z,1014.40
2018-10-01T09:15:19.307Z,1014.46
2018-10-01T09:16:19.297Z,1014.44
2018-10-01T09:17:19.321Z,1014.47
2018-10-01T09:18:19.277Z,1014.43
2018-10-01T09:19:19.258Z,1014.46
2018-10-01T09:20:19.309Z,1014.43
2018-10-01T09:21:19.291Z,1014.48
2018-10-01T09:22:19.232Z,1014.41
2018-10-01T09:23:19.239Z,1014.41
2018-10-01T09:24:19.230Z,1014.42
2018-10-01T09:25:19.233Z,1014.41
2018-10-01T09:26:19.214Z,1014.42
2018-10-01T09:27:19.241Z,1014.41
2018-10-01T09:28:19.205Z,1014.44
2018-10-01T09:29:19.208Z,1014.50
2018-10-01T09:30:19.197Z,1014.49
2018-10-01T09:31:19.189Z,1014.47
2018-10-01T09:32:19.205Z,1014.51
2018-10-01T09:33:19.182Z,1014.53
2018-10-01T09:34:19.162Z,1014.58
2018-10-01T09:35:19.166Z,1014.61
2018-10-01T09:36:19.154Z,1014.61
2018-10-01T09:37:19.169Z,1014.59
2018-10-01T09:38:19.201Z,1014.56
2018-10-01T09:39:19.133Z,1014.59
2018-10-01T09:40:19.162Z,1014.58
2018-10-01T09:41:19.137Z,1014.59
2018-10-01T09:42:19.113Z,1014.60
2018-10-01T09:43:19.117Z,1014.62
2018-10-01T09:44:19.159Z,1014.58
2018-10-01T09:45:19.102Z,1014.59
2018-10-01T09:46:19.129Z,1014.59
2018-10-01T09:47:19.088Z,1014.59
2018-10-01T09:48:19.076Z,1014.57
2018-10-01T09:49:19.079Z,1014.56
2018-10-01T09:50:19.123Z,1014.59
2018-10-01T09:51:19.072Z,1014.57
2018-10-01T09:52:19.092Z,1014.57
2018-10-01T09:53:19.059Z,1014.61
2018-10-01T09:54:19.047Z,1014.58
2018-10-01T09:55:19.052Z,1014.58
2018-10-01T09:56:19.046Z,1014.52
2018-10-01T09:57:19.035Z,1014.50
2018-10-01T09:58:19.159Z,1014.51
2018-10-01T09:59:19.009Z,1014.50
2018-10-01T10:00:18.998Z,1014.51
2018-10-01T10:01:19.034Z,1014.55
2018-10-01T10:02:19.037Z,1014.50
2018-10-01T10:03:18.986Z,1014.52
2018-10-01T10:04:19.048Z,1014.48
2018-10-01T10:05:18.979Z,1014.53
2018-10-01T10:06:18.973Z,1014.49
2018-10-01T10:07:18.968Z,1014.53
2018-10-01T10:08:18.974Z,1014.45
2018-10-01T10:09:18.956Z,1014.51
2018-10-01T10:10:18.937Z,1014.46
2018-10-01T10:11:19.006Z,1014.44
2018-10-01T10:12:18.921Z,1014.38
2018-10-01T10:13:18.913Z,1014.41
2018-10-01T10:14:18.987Z,1014.43
2018-10-01T10:15:18.900Z,1014.46
2018-10-01T10:16:18.988Z,1014.44
2018-10-01T10:17:18.914Z,1014.50
2018-10-01T10:18:18.877Z,1014.51
2018-10-01T10:19:18.881Z,1014.48
2018-10-01T10:20:18.884Z,1014.47
2018-10-01T10:21:18.869Z,1014.47
2018-10-01T10:22:18.916Z,1014.45
2018-10-01T10:23:18.879Z,1014.40
2018-10-01T10:24:18.847Z,1014.42
2018-10-01T10:25:18.846Z,1014.41
2018-10-01T10:26:18.859Z,1014.34
2018-10-01T10:27:18.831Z,1014.38
2018-10-01T10:28:18.826Z,1014.41
2018-10-01T10:29:18.833Z,1014.39
2018-10-01T10:30:18.825Z,1014.37
2018-10-01T10:31:18.823Z,1014.36
2018-10-01T10:32:18.823Z,1014.38
2018-10-01T10:33:18.798Z,1014.40
2018-10-01T10:34:18.805Z,1014.44
2018-10-01T10:35:18.797Z,1014.40
2018-10-01T10:36:18.773Z,1014.48
2018-10-01T10:37:18.767Z,1014.50
2018-10-01T10:38:18.770Z,1014.47
2018-10-01T10:39:18.755Z,1014.49
2018-10-01T10:40:18.744Z,1014.44
2018-10-01T10:41:18.751Z,1014.48
2018-10-01T10:42:18.728Z,1014.46
2018-10-01T10:43:18.738Z,1014.53
2018-10-01T10:44:18.747Z,1014.49
2018-10-01T10:45:18.724Z,1014.53
2018-10-01T10:46:18.716Z,1014.50
2018-10-01T10:47:18.695Z,1014.53
2018-10-01T10:48:18.690Z,1014.55
2018-10-01T10:49:18.680Z,1014.50
2018-10-01T10:50:18.783Z,1014.54
2018-10-01T10:51:18.689Z,1014.54
2018-10-01T10:52:18.669Z,1014.58
2018-10-01T10:53:18.665Z,1014.56
2018-10-01T10:54:18.656Z,1014.55
2018-10-01T10:55:18.667Z,1014.60
2018-10-01T10:56:18.660Z,1014.59
2018-10-01T10:57:18.637Z,1014.60
2018-10-01T10:58:18.621Z,1014.57
2018-10-01T10:59:18.622Z,1014.57
2018-10-01T11:00:18.619Z,1014.58
2018-10-01T11:01:18.632Z,1014.61
2018-10-01T11:02:18.619Z,1014.58
2018-10-01T11:03:18.595Z,1014.62
2018-10-01T11:04:18.594Z,1014.61
2018-10-01T11:05:18.620Z,1014.61
2018-10-01T11:06:18.582Z,1014.63
2018-10-01T11:07:18.626Z,1014.66
2018-10-01T11:08:18.604Z,1014.68
2018-10-01T11:09:18.564Z,1014.68
2018-10-01T11:10:18.558Z,1014.63
2018-10-01T11:11:18.548Z,1014.66
2018-10-01T11:12:18.568Z,1014.65
2018-10-01T11:13:18.535Z,1014.69
2018-10-01T11:14:18.652Z,1014.66
2018-10-01T11:15:18.676Z,1014.66
2018-10-01T11:16:18.527Z,1014.63
2018-10-01T11:17:18.565Z,1014.71
2018-10-01T11:18:18.578Z,1014.69
2018-10-01T11:19:18.671Z,1014.73
2018-10-01T11:20:18.569Z,1014.70
2018-10-01T11:21:18.511Z,1014.68
2018-10-01T11:22:18.545Z,1014.72
2018-10-01T11:23:18.475Z,1014.69
2018-10-01T11:24:18.466Z,1014.72
2018-10-01T11:25:18.471Z,1014.72
2018-10-01T11:26:18.456Z,1014.64
2018-10-01T11:27:18.567Z,1014.62
2018-10-01T11:28:18.490Z,1014.58
2018-10-01T11:29:18.431Z,1014.54
2018-10-01T11:30:18.425Z,1014.60
2018-10-01T11:31:18.416Z,1014.54
2018-10-01T11:32:18.414Z,1014.55
2018-10-01T11:33:18.539Z,1014.60
2018-10-01T11:34:18.435Z,1014.53
2018-10-01T11:35:18.513Z,1014.58
2018-10-01T11:36:18.390Z,1014.54
2018-10-01T11:37:18.390Z,1014.56
2018-10-01T11:38:18.375Z,1014.60
2018-10-01T11:39:18.558Z,1014.63
2018-10-01T11:40:18.370Z,1014.62
2018-10-01T11:41:18.364Z,1014.71
2018-10-01T11:42:18.350Z,1014.65
2018-10-01T11:43:18.360Z,1014.76
2018-10-01T11:44:18.333Z,1014.72
2018-10-01T11:45:18.463Z,1014.70
2018-10-01T11:46:18.329Z,1014.69
2018-10-01T11:47:18.335Z,1014.71
2018-10-01T11:48:18.331Z,1014.75
2018-10-01T11:49:18.315Z,1014.72
2018-10-01T11:50:18.289Z,1014.79
2018-10-01T11:51:18.345Z,1014.89
2018-10-01T11:52:18.303Z,1014.87
2018-10-01T11:53:18.276Z,1015.07
2018-10-01T11:54:18.281Z,1015.27
2018-10-01T11:55:18.277Z,1015.21
2018-10-01T11:56:18.254Z,1015.18
2018-10-01T11:57:18.305Z,1015.25
2018-10-01T11:58:18.254Z,1015.20
2018-10-01T11:59:18.237Z,1015.35
2018-10-01T12:00:18.229Z,1015.34
2018-10-01T12:01:18.234Z,1015.30
2018-10-01T12:02:18.230Z,1015.36
2018-10-01T12:03:18.317Z,1015.39
2018-10-01T12:04:18.204Z,1015.45
2018-10-01T12:05:18.192Z,1015.44